Time;durP1;ratioP1;P1;durP2;ratioP2;P2;SDS_P1;SDS_P2;PMS_P1;PMS_P2;Temp;Humidity;BMP_temperature;BMP_pressure;BME280_temperature;BME280_humidity;BME280_pressure;Samples;Min_cycle;Max_cycle;Signal;HPM_P1;HPM_P2
2021/08/27 00:00:13;;;;;;;7.53;3.67;;;13.80;99.90;;;;;;4125947;28;20112;-67
2021/08/27 00:02:15;;;;;;;6.40;3.53;;;13.80;99.90;;;;;;4125368;28;20097;-68
2021/08/27 00:04:17;;;;;;;7.37;3.33;;;13.80;99.90;;;;;;4126049;28;20096;-66
2021/08/27 00:06:18;;;;;;;5.03;3.63;;;13.80;99.90;;;;;;4125309;28;20046;-67
2021/08/27 00:08:19;;;;;;;6.03;3.70;;;13.80;99.90;;;;;;4126153;28;20100;-66
2021/08/27 00:10:21;;;;;;;6.20;3.70;;;13.80;99.90;;;;;;4125396;28;20443;-66
2021/08/27 00:12:22;;;;;;;8.43;4.47;;;13.70;99.90;;;;;;4126738;28;20034;-67
2021/08/27 00:14:23;;;;;;;6.90;3.80;;;13.70;99.90;;;;;;4125838;28;20034;-68
2021/08/27 00:16:24;;;;;;;5.03;3.40;;;13.60;99.90;;;;;;4125988;28;20034;-69
2021/08/27 00:18:25;;;;;;;7.30;4.00;;;13.60;99.90;;;;;;4124926;28;20050;-66
2021/08/27 00:20:28;;;;;;;6.90;3.67;;;13.50;99.90;;;;;;4125889;28;20042;-67
2021/08/27 00:22:29;;;;;;;6.97;3.50;;;13.50;99.90;;;;;;4125458;28;20741;-67
2021/08/27 00:24:30;;;;;;;5.83;3.97;;;13.60;99.90;;;;;;4124829;28;20046;-67
2021/08/27 00:26:31;;;;;;;6.53;3.63;;;13.60;99.90;;;;;;4125784;28;20046;-68
2021/08/27 00:28:32;;;;;;;6.87;3.47;;;13.60;99.90;;;;;;4124696;28;20038;-67
2021/08/27 00:30:34;;;;;;;8.57;3.67;;;13.60;99.90;;;;;;4125977;28;20108;-67
2021/08/27 00:32:35;;;;;;;6.23;3.23;;;13.70;99.90;;;;;;4124516;28;20065;-67
2021/08/27 00:34:36;;;;;;;6.83;3.50;;;13.70;99.90;;;;;;4126025;28;20089;-67
2021/08/27 00:36:37;;;;;;;5.63;3.40;;;13.70;99.90;;;;;;4125458;28;20894;-67
2021/08/27 00:38:38;;;;;;;6.57;3.70;;;13.70;99.90;;;;;;4123423;28;20097;-67
2021/08/27 00:40:40;;;;;;;9.20;3.20;;;13.60;99.90;;;;;;4125298;28;20038;-67
2021/08/27 00:42:41;;;;;;;4.67;3.30;;;13.60;99.90;;;;;;4125553;28;20046;-67
2021/08/27 00:44:42;;;;;;;6.17;2.90;;;13.60;99.90;;;;;;4125454;28;20085;-68
2021/08/27 00:46:44;;;;;;;8.60;3.43;;;13.60;99.90;;;;;;4126346;28;20085;-67
2021/08/27 00:48:45;;;;;;;7.30;3.90;;;13.60;99.90;;;;;;4125169;28;20458;-67
2021/08/27 00:50:47;;;;;;;7.87;4.20;;;13.60;99.90;;;;;;4125741;28;20038;-69
2021/08/27 00:52:48;;;;;;;6.50;3.83;;;13.60;99.90;;;;;;4125530;28;20501;-67
2021/08/27 00:54:51;;;;;;;7.23;3.73;;;13.50;99.90;;;;;;4125397;28;20042;-68
2021/08/27 00:56:53;;;;;;;7.53;3.70;;;13.50;99.90;;;;;;4124181;28;20081;-66
2021/08/27 00:58:54;;;;;;;8.03;3.80;;;13.50;99.90;;;;;;4124486;28;20081;-67
2021/08/27 01:00:55;;;;;;;7.63;3.63;;;13.60;99.90;;;;;;4125703;28;20059;-68
2021/08/27 01:02:57;;;;;;;7.73;3.53;;;13.60;99.90;;;;;;4124653;28;20054;-67
2021/08/27 01:04:59;;;;;;;6.30;3.50;;;13.60;99.90;;;;;;4126088;28;20030;-67
2021/08/27 01:07:12;;;;;;;4.73;3.27;;;13.60;99.90;;;;;;4124667;28;20034;-67
2021/08/27 01:09:38;;;;;;;6.83;3.63;;;13.60;99.90;;;;;;4124755;28;20046;-67
2021/08/27 01:11:48;;;;;;;6.60;3.73;;;13.60;99.90;;;;;;4124757;28;20543;-67
2021/08/27 01:14:01;;;;;;;5.95;3.70;;;13.60;99.90;;;;;;4125657;28;20050;-67
2021/08/27 01:16:09;;;;;;;4.77;3.70;;;13.60;99.90;;;;;;4124967;28;20938;-67
2021/08/27 01:18:21;;;;;;;7.43;3.43;;;13.60;99.90;;;;;;4124974;28;20093;-68
2021/08/27 01:20:37;;;;;;;5.00;3.30;;;13.60;99.90;;;;;;4124221;28;20089;-68
2021/08/27 01:23:15;;;;;;;6.33;3.73;;;13.60;99.90;;;;;;4124787;28;20520;-67
2021/08/27 01:25:18;;;;;;;8.53;4.17;;;13.50;99.90;;;;;;4083492;28;20108;-67
2021/08/27 01:27:21;;;;;;;9.53;5.10;;;13.40;99.90;;;;;;4124404;28;20077;-67
2021/08/27 01:29:54;;;;;;;9.80;4.43;;;13.20;99.90;;;;;;4124482;28;20042;-68
2021/08/27 01:32:03;;;;;;;8.70;3.93;;;12.90;99.90;;;;;;4124217;28;20031;-68
2021/08/27 01:34:29;;;;;;;11.60;5.07;;;12.70;99.90;;;;;;4124538;28;20046;-67
2021/08/27 01:36:33;;;;;;;13.17;5.30;;;12.60;99.90;;;;;;4122262;28;20125;-67
2021/08/27 01:38:38;;;;;;;9.17;5.10;;;12.50;99.90;;;;;;4120876;28;20030;-67
2021/08/27 01:40:42;;;;;;;11.57;5.27;;;12.50;99.90;;;;;;4119505;28;20030;-67
2021/08/27 01:42:45;;;;;;;11.83;4.87;;;12.40;99.90;;;;;;4119725;28;20085;-68
2021/08/27 01:44:48;;;;;;;12.70;5.53;;;12.30;99.90;;;;;;4119802;28;20430;-67
2021/08/27 01:46:54;;;;;;;15.10;5.50;;;12.30;99.90;;;;;;4119677;28;20030;-67
2021/08/27 01:48:56;;;;;;;10.87;4.87;;;12.30;99.90;;;;;;4118442;28;20112;-66
2021/08/27 01:50:57;;;;;;;9.87;5.13;;;12.30;99.90;;;;;;4121704;28;20089;-68
2021/08/27 01:52:59;;;;;;;10.53;5.07;;;12.30;99.90;;;;;;4124371;28;20081;-67
2021/08/27 01:55:02;;;;;;;8.17;4.43;;;12.30;99.90;;;;;;4123891;28;20046;-67
2021/08/27 01:57:05;;;;;;;10.63;5.27;;;12.40;99.90;;;;;;4124326;28;20742;-67
2021/08/27 01:59:07;;;;;;;8.27;4.77;;;12.40;99.90;;;;;;4124094;28;20841;-68
2021/08/27 02:01:09;;;;;;;7.57;4.60;;;12.50;99.90;;;;;;4124441;28;20465;-68
2021/08/27 02:03:10;;;;;;;8.50;4.30;;;12.50;99.90;;;;;;4123592;28;20604;-68
2021/08/27 02:05:13;;;;;;;9.70;4.60;;;12.60;99.90;;;;;;4124630;28;20494;-67
2021/08/27 02:07:15;;;;;;;8.50;3.97;;;12.70;99.90;;;;;;4123398;28;20086;-67
2021/08/27 02:09:17;;;;;;;8.43;3.83;;;12.70;99.90;;;;;;4124319;28;20038;-67
2021/08/27 02:11:20;;;;;;;10.67;4.37;;;12.70;99.90;;;;;;4123360;28;20034;-67
2021/08/27 02:13:22;;;;;;;5.97;4.03;;;12.70;99.90;;;;;;4124093;28;20034;-67
2021/08/27 02:15:24;;;;;;;9.20;4.03;;;12.70;99.90;;;;;;4124163;28;20557;-67
2021/08/27 02:17:29;;;;;;;7.90;4.20;;;12.70;99.90;;;;;;4124136;28;20034;-68
2021/08/27 02:19:30;;;;;;;6.80;3.87;;;12.70;99.90;;;;;;4123424;28;20053;-68
2021/08/27 02:21:38;;;;;;;9.47;4.30;;;12.70;99.90;;;;;;4122181;28;20061;-67
2021/08/27 02:23:41;;;;;;;8.20;4.27;;;12.70;99.90;;;;;;4123019;28;20042;-67
2021/08/27 02:25:48;;;;;;;7.70;4.03;;;12.60;99.90;;;;;;4123392;28;20438;-67
2021/08/27 02:27:51;;;;;;;6.87;4.77;;;12.60;99.90;;;;;;4123827;28;20026;-67
2021/08/27 02:29:55;;;;;;;7.17;3.83;;;12.60;99.90;;;;;;4123990;28;20434;-67
2021/08/27 02:32:01;;;;;;;7.70;4.17;;;12.60;99.90;;;;;;4124180;28;20022;-66
2021/08/27 02:34:03;;;;;;;8.17;3.67;;;12.60;99.90;;;;;;4122321;28;20081;-67
2021/08/27 02:36:09;;;;;;;8.23;4.33;;;12.60;99.90;;;;;;4124218;28;20494;-67
2021/08/27 02:38:22;;;;;;;8.37;4.53;;;12.60;99.90;;;;;;4123595;28;20081;-66
2021/08/27 02:40:23;;;;;;;7.37;4.30;;;12.60;99.90;;;;;;4123732;28;20038;-67
2021/08/27 02:42:31;;;;;;;5.93;3.83;;;12.70;99.90;;;;;;4123221;28;20129;-67
2021/08/27 02:44:32;;;;;;;7.40;4.33;;;12.70;99.90;;;;;;4123942;28;20038;-67
2021/08/27 02:46:33;;;;;;;15.83;8.30;;;12.70;99.90;;;;;;4123161;28;20046;-68
2021/08/27 02:48:34;;;;;;;10.57;4.63;;;12.70;99.90;;;;;;4124002;28;20100;-67
2021/08/27 02:50:42;;;;;;;8.27;4.30;;;12.60;99.90;;;;;;4122785;28;20099;-69
2021/08/27 02:52:50;;;;;;;10.07;4.20;;;12.60;99.90;;;;;;4123248;28;20049;-67
2021/08/27 02:55:09;;;;;;;5.90;3.80;;;12.60;99.90;;;;;;4122761;28;20089;-67
2021/08/27 02:57:11;;;;;;;6.40;3.47;;;12.60;99.90;;;;;;4109927;28;20457;-68
2021/08/27 02:59:15;;;;;;;7.83;4.00;;;12.60;99.90;;;;;;4123063;28;20036;-67
2021/08/27 03:01:37;;;;;;;6.40;3.97;;;12.60;99.90;;;;;;4124220;28;20030;-68
2021/08/27 03:03:41;;;;;;;6.90;3.40;;;12.60;99.90;;;;;;4122860;28;20046;-67
2021/08/27 03:05:44;;;;;;;6.47;3.70;;;12.60;99.90;;;;;;4123969;28;20038;-67
2021/08/27 03:07:53;;;;;;;7.70;4.03;;;12.60;99.90;;;;;;4123320;28;20426;-67
2021/08/27 03:09:57;;;;;;;9.57;4.33;;;12.60;99.90;;;;;;4123567;28;20658;-67
2021/08/27 03:12:04;;;;;;;6.23;3.80;;;12.60;99.90;;;;;;4122652;28;20030;-66
2021/08/27 03:14:11;;;;;;;11.10;4.23;;;12.60;99.90;;;;;;4123033;28;20050;-68
2021/08/27 03:16:17;;;;;;;12.73;4.53;;;12.50;99.90;;;;;;4122986;28;20092;-67
2021/08/27 03:18:19;;;;;;;8.87;4.57;;;12.50;99.90;;;;;;4123306;28;20548;-67
2021/08/27 03:20:30;;;;;;;7.10;4.37;;;12.50;99.90;;;;;;4122985;28;20030;-67
2021/08/27 03:22:42;;;;;;;6.50;3.40;;;12.50;99.90;;;;;;4123150;28;20482;-69
2021/08/27 03:24:50;;;;;;;9.50;3.87;;;12.50;99.90;;;;;;4122706;28;20034;-67
2021/08/27 03:26:58;;;;;;;8.63;4.07;;;12.50;99.90;;;;;;4122471;28;20110;-68
2021/08/27 03:29:04;;;;;;;7.33;4.30;;;12.40;99.90;;;;;;4122826;28;20965;-67
2021/08/27 03:31:06;;;;;;;9.00;4.20;;;12.40;99.90;;;;;;4123272;28;20100;-67
2021/08/27 03:33:10;;;;;;;11.97;4.00;;;12.40;99.90;;;;;;4122809;28;20084;-68
2021/08/27 03:35:14;;;;;;;9.30;5.27;;;12.40;99.90;;;;;;4123033;28;20588;-67
2021/08/27 03:37:17;;;;;;;13.20;4.33;;;12.40;99.90;;;;;;4121778;28;20069;-67
2021/08/27 03:39:20;;;;;;;14.73;5.17;;;12.40;99.90;;;;;;4122655;28;20434;-65
2021/08/27 03:41:24;;;;;;;12.63;4.87;;;12.40;99.90;;;;;;4123082;28;20081;-67
2021/08/27 03:43:26;;;;;;;11.10;4.80;;;12.40;99.90;;;;;;4122854;28;20034;-68
2021/08/27 03:45:29;;;;;;;13.77;4.80;;;12.30;99.90;;;;;;4123429;28;20037;-68
2021/08/27 03:47:31;;;;;;;14.10;5.43;;;12.30;99.90;;;;;;4122780;28;20026;-67
2021/08/27 03:49:33;;;;;;;7.53;4.43;;;12.30;99.90;;;;;;4122974;28;20035;-68
2021/08/27 03:51:35;;;;;;;9.83;4.90;;;12.30;99.90;;;;;;4121823;28;20038;-67
2021/08/27 03:53:37;;;;;;;12.33;4.23;;;12.30;99.90;;;;;;4122813;28;20038;-67
2021/08/27 03:55:39;;;;;;;12.30;5.93;;;12.30;99.90;;;;;;4121448;28;20085;-67
2021/08/27 03:57:44;;;;;;;12.50;5.10;;;12.30;99.90;;;;;;4122884;28;20463;-67
2021/08/27 03:59:46;;;;;;;11.83;4.77;;;12.40;99.90;;;;;;4122433;28;20034;-68
2021/08/27 04:01:49;;;;;;;9.53;5.77;;;12.40;99.90;;;;;;4122513;28;20461;-68
2021/08/27 04:03:50;;;;;;;20.43;4.93;;;12.40;99.90;;;;;;4122094;28;20132;-66
2021/08/27 04:06:04;;;;;;;11.43;4.30;;;12.40;99.90;;;;;;4122736;28;20442;-67
2021/08/27 04:08:05;;;;;;;10.93;5.27;;;12.30;99.90;;;;;;4122005;28;20050;-67
2021/08/27 04:10:08;;;;;;;8.37;5.00;;;12.30;99.90;;;;;;4121882;28;20046;-67
2021/08/27 04:12:09;;;;;;;7.20;4.37;;;12.30;99.90;;;;;;4122300;28;20498;-67
2021/08/27 04:14:10;;;;;;;12.53;5.50;;;12.30;99.90;;;;;;4123022;28;20046;-67
2021/08/27 04:16:12;;;;;;;11.67;4.80;;;12.30;99.90;;;;;;4122688;28;20038;-66
2021/08/27 04:18:13;;;;;;;9.77;4.67;;;12.40;99.90;;;;;;4123075;28;20065;-66
2021/08/27 04:20:14;;;;;;;11.93;4.40;;;12.40;99.90;;;;;;4125492;28;20042;-67
2021/08/27 04:22:15;;;;;;;8.30;4.33;;;12.50;99.90;;;;;;4125439;28;20038;-66
2021/08/27 04:24:17;;;;;;;12.10;4.93;;;12.50;99.90;;;;;;4125221;28;20423;-67
2021/08/27 04:26:18;;;;;;;10.60;4.90;;;12.50;99.90;;;;;;4125451;28;20038;-65
2021/08/27 04:28:19;;;;;;;12.13;4.80;;;12.40;99.90;;;;;;4123870;28;20105;-66
2021/08/27 04:30:20;;;;;;;11.33;5.10;;;12.40;99.90;;;;;;4123649;28;20088;-67
2021/08/27 04:32:21;;;;;;;8.03;4.53;;;12.40;99.90;;;;;;4126079;28;20085;-66
2021/08/27 04:34:23;;;;;;;9.20;4.77;;;12.30;99.90;;;;;;4125295;28;20027;-65
2021/08/27 04:36:24;;;;;;;9.70;4.90;;;12.30;99.90;;;;;;4125372;28;20105;-67
2021/08/27 04:38:25;;;;;;;10.83;4.83;;;12.30;99.90;;;;;;4125521;28;20039;-66
2021/08/27 04:40:26;;;;;;;10.70;5.60;;;12.30;99.90;;;;;;4125159;28;20462;-66
2021/08/27 04:42:28;;;;;;;7.87;4.33;;;12.40;99.90;;;;;;4124872;28;20092;-66
2021/08/27 04:44:29;;;;;;;12.97;5.37;;;12.50;99.90;;;;;;4125639;28;20035;-66
2021/08/27 04:46:31;;;;;;;7.97;4.80;;;12.50;99.90;;;;;;4124369;28;20608;-67
2021/08/27 04:48:32;;;;;;;9.60;4.60;;;12.60;99.90;;;;;;4124422;28;20917;-67
2021/08/27 04:50:33;;;;;;;8.40;4.97;;;12.60;99.90;;;;;;4124927;28;20128;-66
2021/08/27 04:52:35;;;;;;;9.63;5.10;;;12.70;99.90;;;;;;4124566;28;20414;-66
2021/08/27 04:54:36;;;;;;;10.73;5.57;;;12.60;99.90;;;;;;4124678;28;20057;-66
2021/08/27 04:56:37;;;;;;;11.43;5.23;;;12.50;99.90;;;;;;4124751;28;20372;-68
2021/08/27 04:58:38;;;;;;;14.90;6.57;;;12.60;99.90;;;;;;4125491;28;20041;-67
2021/08/27 05:00:39;;;;;;;15.10;6.23;;;12.70;99.90;;;;;;4123174;28;20384;-68
2021/08/27 05:02:40;;;;;;;11.40;5.13;;;13.10;99.90;;;;;;4124952;28;20193;-66
2021/08/27 05:04:41;;;;;;;10.83;5.63;;;13.40;99.90;;;;;;4124248;28;20465;-66
2021/08/27 05:06:43;;;;;;;11.70;5.80;;;13.80;99.90;;;;;;4125032;28;20801;-68
2021/08/27 05:08:44;;;;;;;10.93;5.33;;;14.10;99.90;;;;;;4123547;28;20514;-67
2021/08/27 05:10:45;;;;;;;9.80;5.63;;;14.20;99.90;;;;;;4124566;28;20092;-68
2021/08/27 05:12:47;;;;;;;13.87;5.27;;;14.30;99.90;;;;;;4123552;28;20077;-68
2021/08/27 05:14:48;;;;;;;11.57;5.57;;;14.30;99.90;;;;;;4139160;28;20860;-67
2021/08/27 05:16:49;;;;;;;18.33;6.50;;;14.30;99.90;;;;;;4124599;28;20026;-67
2021/08/27 05:18:51;;;;;;;13.17;6.17;;;14.30;99.90;;;;;;4124151;28;20046;-67
2021/08/27 05:20:52;;;;;;;13.83;6.00;;;14.30;99.90;;;;;;4122394;28;20108;-67
2021/08/27 05:22:53;;;;;;;14.93;5.80;;;14.60;99.90;;;;;;4123600;28;20096;-68
2021/08/27 05:24:54;;;;;;;15.87;5.60;;;14.70;99.90;;;;;;4124274;28;20100;-68
2021/08/27 05:26:55;;;;;;;13.57;5.47;;;14.90;99.90;;;;;;4123890;28;20042;-68
2021/08/27 05:28:56;;;;;;;11.07;5.97;;;15.20;99.90;;;;;;4122398;28;20120;-68
2021/08/27 05:30:57;;;;;;;9.15;5.32;;;15.80;99.90;;;;;;4123643;28;20038;-67
2021/08/27 05:32:58;;;;;;;11.80;5.68;;;16.20;99.90;;;;;;4125047;28;20074;-67
2021/08/27 05:35:00;;;;;;;8.50;5.47;;;16.20;99.90;;;;;;4123236;28;20046;-67
2021/08/27 05:37:01;;;;;;;7.50;4.35;;;16.20;99.90;;;;;;4124577;28;20077;-68
2021/08/27 05:39:03;;;;;;;10.80;6.07;;;16.40;99.90;;;;;;4124014;28;20026;-67
2021/08/27 05:41:04;;;;;;;14.45;6.32;;;16.80;99.90;;;;;;4123874;28;20081;-67
2021/08/27 05:43:06;;;;;;;14.07;5.50;;;17.20;99.90;;;;;;4124116;28;20506;-67
2021/08/27 05:45:08;;;;;;;11.68;6.03;;;17.20;99.90;;;;;;4123908;28;20070;-67
2021/08/27 05:47:09;;;;;;;17.40;7.03;;;17.40;99.90;;;;;;4109909;28;20039;-66
2021/08/27 05:49:10;;;;;;;16.85;6.47;;;17.70;99.90;;;;;;4124704;28;20043;-67
2021/08/27 05:51:11;;;;;;;17.35;5.55;;;18.40;99.90;;;;;;4123954;28;20026;-67
2021/08/27 05:53:13;;;;;;;13.75;5.38;;;19.00;99.90;;;;;;4123651;28;20105;-68
2021/08/27 05:55:14;;;;;;;8.73;4.65;;;19.40;99.90;;;;;;4123813;28;20038;-67
2021/08/27 05:57:15;;;;;;;8.13;4.07;;;19.80;99.90;;;;;;4123735;28;20425;-66
2021/08/27 05:59:17;;;;;;;7.50;3.60;;;20.70;99.90;;;;;;4124448;28;20050;-67
2021/08/27 06:01:18;;;;;;;7.05;3.88;;;21.10;99.50;;;;;;4123659;28;20030;-67
2021/08/27 06:03:19;;;;;;;11.18;3.75;;;20.90;98.90;;;;;;4124413;28;20047;-67
2021/08/27 06:05:21;;;;;;;9.93;4.07;;;21.20;98.50;;;;;;4121993;28;20493;-67
2021/08/27 06:07:22;;;;;;;6.82;3.83;;;21.70;97.80;;;;;;4113909;28;20089;-68
2021/08/27 06:09:23;;;;;;;9.95;4.88;;;21.80;97.20;;;;;;4124117;28;20106;-67
2021/08/27 06:11:25;;;;;;;7.90;5.30;;;21.00;96.90;;;;;;4123839;28;20038;-66
2021/08/27 06:13:26;;;;;;;6.90;3.95;;;19.90;97.40;;;;;;4123242;28;20034;-66
2021/08/27 06:15:27;;;;;;;8.73;4.43;;;19.00;98.50;;;;;;4124316;28;20039;-67
2021/08/27 06:17:28;;;;;;;9.32;4.53;;;18.70;99.00;;;;;;4123039;28;20026;-67
2021/08/27 06:19:29;;;;;;;11.05;4.13;;;18.50;99.40;;;;;;4124023;28;20092;-67
2021/08/27 06:21:37;;;;;;;11.85;4.25;;;18.50;99.50;;;;;;4123683;28;20081;-67
2021/08/27 06:23:38;;;;;;;10.90;4.35;;;18.50;99.30;;;;;;4123585;28;20162;-67
2021/08/27 06:25:39;;;;;;;6.68;3.97;;;18.70;99.10;;;;;;4124077;28;20042;-67
2021/08/27 06:27:41;;;;;;;8.93;3.40;;;18.90;98.70;;;;;;4123891;28;20363;-68
2021/08/27 06:29:42;;;;;;;5.18;3.55;;;19.10;98.20;;;;;;4123999;28;20738;-67
2021/08/27 06:31:43;;;;;;;7.03;3.95;;;19.40;97.60;;;;;;4123543;28;20034;-69
2021/08/27 06:33:44;;;;;;;8.70;4.22;;;20.00;97.00;;;;;;4123472;28;20085;-66
2021/08/27 06:35:45;;;;;;;7.10;3.33;;;20.70;96.30;;;;;;4123098;28;20046;-66
2021/08/27 06:40:07;;;;;;;7.45;3.72;;;21.90;95.00;;;;;;4122384;28;20443;-67
2021/08/27 06:42:08;;;;;;;6.55;3.80;;;22.20;94.30;;;;;;4107543;28;20039;-65
2021/08/27 06:44:09;;;;;;;7.13;3.72;;;22.30;93.90;;;;;;4107026;28;20035;-66
2021/08/27 06:46:14;;;;;;;7.45;3.65;;;22.70;93.40;;;;;;4128952;28;20092;-68
2021/08/27 06:48:15;;;;;;;9.35;4.28;;;22.90;92.50;;;;;;4123120;28;20027;-68
2021/08/27 06:50:17;;;;;;;5.25;3.35;;;23.10;92.10;;;;;;4123743;28;20030;-67
2021/08/27 06:52:18;;;;;;;10.20;3.85;;;22.00;91.90;;;;;;4123006;28;20073;-67
2021/08/27 06:54:19;;;;;;;10.40;4.32;;;21.50;92.70;;;;;;4122134;28;20042;-67
2021/08/27 06:56:21;;;;;;;8.35;3.58;;;21.20;93.10;;;;;;4123046;28;20881;-64
2021/08/27 06:58:23;;;;;;;8.82;3.88;;;21.10;93.30;;;;;;4123253;28;20128;-66
2021/08/27 07:00:24;;;;;;;9.95;4.45;;;20.70;93.60;;;;;;4122986;28;20030;-65
2021/08/27 07:02:25;;;;;;;14.57;4.72;;;20.30;93.80;;;;;;4122825;28;20051;-61
2021/08/27 07:04:26;;;;;;;9.73;5.43;;;20.40;94.00;;;;;;4123390;28;20039;-64
2021/08/27 07:06:27;;;;;;;14.00;6.18;;;20.50;94.10;;;;;;4121847;28;20038;-64
2021/08/27 07:08:29;;;;;;;11.15;5.75;;;20.50;94.50;;;;;;4123535;28;20495;-63
2021/08/27 07:10:30;;;;;;;15.55;6.18;;;20.90;94.50;;;;;;4122476;28;20034;-62
2021/08/27 07:12:31;;;;;;;15.25;6.22;;;21.00;94.40;;;;;;4123222;28;20117;-63
2021/08/27 07:14:32;;;;;;;18.70;5.97;;;20.90;94.20;;;;;;4122357;28;20034;-64
2021/08/27 07:16:33;;;;;;;16.88;6.57;;;20.60;94.10;;;;;;4123029;28;20819;-64
2021/08/27 07:18:35;;;;;;;12.27;5.40;;;20.30;94.50;;;;;;4121925;28;20120;-63
2021/08/27 07:20:37;;;;;;;19.80;6.40;;;20.00;95.00;;;;;;4123294;28;20069;-63
2021/08/27 07:22:39;;;;;;;9.77;4.78;;;19.70;95.30;;;;;;4122672;28;20073;-66
2021/08/27 07:24:40;;;;;;;9.55;5.20;;;19.40;95.20;;;;;;4123449;28;20394;-67
2021/08/27 07:26:41;;;;;;;11.55;5.93;;;19.00;95.90;;;;;;4121160;28;20560;-68
2021/08/27 07:28:42;;;;;;;10.35;5.05;;;18.90;96.30;;;;;;4122436;28;20038;-65
2021/08/27 07:30:44;;;;;;;10.43;4.45;;;18.60;96.30;;;;;;4121422;28;20451;-65
2021/08/27 07:32:46;;;;;;;8.95;4.80;;;18.40;97.10;;;;;;4122266;28;20047;-66
2021/08/27 07:34:48;;;;;;;10.98;5.82;;;18.30;97.60;;;;;;4122639;28;20054;-64
2021/08/27 07:36:49;;;;;;;10.77;4.63;;;18.10;98.10;;;;;;4121727;28;20062;-64
2021/08/27 07:38:50;;;;;;;12.25;5.07;;;18.00;98.20;;;;;;4123682;28;20780;-64
2021/08/27 07:40:51;;;;;;;12.80;5.30;;;18.10;98.20;;;;;;4121648;28;20081;-63
2021/08/27 07:42:52;;;;;;;12.30;4.95;;;18.10;98.00;;;;;;4123217;28;20069;-67
2021/08/27 07:44:53;;;;;;;9.98;5.10;;;18.00;98.10;;;;;;4122005;28;20429;-66
2021/08/27 07:46:54;;;;;;;10.57;5.47;;;18.10;98.10;;;;;;4123528;28;20034;-67
2021/08/27 07:48:55;;;;;;;14.98;5.63;;;18.10;98.00;;;;;;4121435;28;20148;-64
2021/08/27 07:50:56;;;;;;;14.63;5.10;;;18.10;98.00;;;;;;4122974;28;20081;-64
2021/08/27 07:52:58;;;;;;;11.10;5.53;;;18.10;98.10;;;;;;4123397;28;20503;-63
2021/08/27 07:54:59;;;;;;;11.43;5.00;;;18.00;98.10;;;;;;4125711;28;20038;-65
2021/08/27 07:57:00;;;;;;;9.05;5.40;;;18.00;98.20;;;;;;4125611;28;20042;-64
2021/08/27 07:59:01;;;;;;;8.18;3.97;;;18.00;98.20;;;;;;4125402;28;20082;-64
2021/08/27 08:01:02;;;;;;;8.98;4.68;;;18.10;98.20;;;;;;4125693;28;20853;-65
2021/08/27 08:03:03;;;;;;;14.02;4.95;;;18.30;98.30;;;;;;4139415;28;20120;-63
2021/08/27 08:05:05;;;;;;;15.30;5.72;;;18.20;97.80;;;;;;4126124;28;20042;-63
2021/08/27 08:07:07;;;;;;;12.38;4.82;;;18.20;97.90;;;;;;4124022;28;20035;-65
2021/08/27 08:09:08;;;;;;;6.95;4.50;;;18.10;98.00;;;;;;4127500;28;20054;-64
2021/08/27 08:11:11;;;;;;;10.68;5.40;;;18.00;98.10;;;;;;4125692;28;20034;-62
2021/08/27 08:13:12;;;;;;;11.10;5.20;;;18.00;98.30;;;;;;4125631;28;20042;-63
2021/08/27 08:15:15;;;;;;;10.73;5.40;;;17.90;98.50;;;;;;4125535;28;20066;-63
2021/08/27 08:17:16;;;;;;;11.02;5.45;;;17.90;98.70;;;;;;4125598;28;20046;-65
2021/08/27 08:19:17;;;;;;;10.32;5.72;;;17.90;98.70;;;;;;4124254;28;20042;-63
2021/08/27 08:21:22;;;;;;;11.80;5.00;;;17.90;98.80;;;;;;4110496;28;20148;-63
2021/08/27 08:23:24;;;;;;;13.10;5.32;;;17.80;98.90;;;;;;4123619;28;20441;-62
2021/08/27 08:25:25;;;;;;;6.80;3.90;;;17.80;99.00;;;;;;4120753;28;20034;-64
2021/08/27 08:27:26;;;;;;;11.00;4.10;;;17.80;99.00;;;;;;4118527;28;20106;-63
2021/08/27 08:29:27;;;;;;;6.80;4.30;;;17.80;99.10;;;;;;4120036;28;20513;-63
2021/08/27 08:31:29;;;;;;;7.13;4.30;;;17.80;99.10;;;;;;4122837;28;20048;-67
2021/08/27 08:33:32;;;;;;;6.68;4.28;;;17.80;99.10;;;;;;4123714;28;20074;-63
2021/08/27 08:35:33;;;;;;;12.57;4.63;;;17.80;99.20;;;;;;4121495;28;20097;-63
2021/08/27 08:37:39;;;;;;;8.43;4.38;;;17.80;99.30;;;;;;4124147;28;20500;-63
2021/08/27 08:39:41;;;;;;;10.38;4.07;;;17.80;99.20;;;;;;4124385;28;20113;-63
2021/08/27 08:41:46;;;;;;;10.52;4.50;;;17.80;99.40;;;;;;4122954;28;20510;-63
2021/08/27 08:43:49;;;;;;;7.55;4.53;;;17.70;99.50;;;;;;4123380;28;20093;-63
2021/08/27 08:45:50;;;;;;;10.32;4.93;;;17.70;99.60;;;;;;4122883;28;20094;-62
2021/08/27 08:47:54;;;;;;;17.38;5.75;;;17.60;99.80;;;;;;4124072;28;20034;-65
2021/08/27 08:49:56;;;;;;;14.23;5.60;;;17.60;99.80;;;;;;4123464;28;20725;-64
2021/08/27 08:52:00;;;;;;;10.55;6.22;;;17.60;99.90;;;;;;4154829;28;20083;-65
2021/08/27 08:54:03;;;;;;;14.10;5.55;;;17.60;99.90;;;;;;4123499;28;20557;-65
2021/08/27 08:56:05;;;;;;;12.90;6.22;;;17.70;99.90;;;;;;4123397;28;20053;-64
2021/08/27 08:58:07;;;;;;;10.55;5.20;;;17.80;99.90;;;;;;4123471;28;20081;-65
2021/08/27 09:00:09;;;;;;;9.57;5.32;;;17.80;99.90;;;;;;4123247;28;20089;-65
2021/08/27 09:02:10;;;;;;;9.77;5.47;;;17.80;99.80;;;;;;4123025;28;20042;-63
2021/08/27 09:04:11;;;;;;;10.82;5.32;;;17.80;99.80;;;;;;4123234;28;20038;-64
2021/08/27 09:06:13;;;;;;;11.25;5.20;;;17.70;99.90;;;;;;4123170;28;20054;-63
2021/08/27 09:08:30;;;;;;;9.25;4.45;;;17.70;99.90;;;;;;4124003;28;20038;-63
2021/08/27 09:10:43;;;;;;;9.75;5.38;;;17.70;99.90;;;;;;4123253;28;20042;-64
2021/08/27 09:12:44;;;;;;;8.95;4.82;;;17.60;99.90;;;;;;4123706;28;20034;-64
2021/08/27 09:15:06;;;;;;;8.80;4.38;;;17.60;99.90;;;;;;4122730;28;20034;-65
2021/08/27 09:17:07;;;;;;;15.35;5.95;;;17.60;99.90;;;;;;4123047;28;20061;-62
2021/08/27 09:19:08;;;;;;;8.90;5.03;;;17.60;99.90;;;;;;4123533;28;20038;-63
2021/08/27 09:21:50;;;;;;;15.85;7.18;;;17.60;99.90;;;;;;4118085;28;21041;-63
2021/08/27 09:24:10;;;;;;;13.68;6.55;;;17.60;99.90;;;;;;4041958;29;20545;-65
2021/08/27 09:26:34;;;;;;;9.07;4.93;;;17.70;99.90;;;;;;4057371;29;20120;-61
2021/08/27 09:28:37;;;;;;;12.75;5.00;;;17.80;99.90;;;;;;4076281;28;20042;-63
2021/08/27 09:30:54;;;;;;;13.10;5.65;;;17.80;99.90;;;;;;4137350;28;20038;-62
2021/08/27 09:32:56;;;;;;;12.73;6.60;;;17.90;99.90;;;;;;4121149;28;20034;-63
2021/08/27 09:35:18;;;;;;;16.92;6.75;;;17.90;99.90;;;;;;4123944;28;20471;-63
2021/08/27 09:37:19;;;;;;;11.40;5.72;;;17.90;99.90;;;;;;4122263;28;20038;-64
2021/08/27 09:39:32;;;;;;;14.82;6.18;;;17.90;99.90;;;;;;4124156;28;20096;-63
2021/08/27 09:41:34;;;;;;;15.50;6.85;;;17.90;99.90;;;;;;4121059;28;20128;-64
2021/08/27 09:43:54;;;;;;;11.73;5.55;;;17.80;99.90;;;;;;4123585;28;20364;-65
2021/08/27 09:45:57;;;;;;;15.40;5.95;;;17.90;99.90;;;;;;4122097;28;20042;-64
2021/08/27 09:48:10;;;;;;;11.55;6.78;;;17.80;99.90;;;;;;4121875;28;20026;-69
2021/08/27 09:50:26;;;;;;;10.88;6.32;;;17.90;99.90;;;;;;4122307;28;20038;-63
2021/08/27 09:52:27;;;;;;;11.80;5.93;;;17.90;99.90;;;;;;4124037;28;20026;-63
2021/08/27 09:54:29;;;;;;;11.63;5.38;;;18.00;99.90;;;;;;4113008;28;20037;-66
2021/08/27 09:56:48;;;;;;;12.65;5.70;;;18.00;99.90;;;;;;4108159;28;20176;-69
2021/08/27 09:58:55;;;;;;;11.40;5.95;;;18.10;99.90;;;;;;4107846;28;20519;-64
2021/08/27 10:01:07;;;;;;;9.75;5.82;;;18.10;99.90;;;;;;4108364;28;20031;-64
2021/08/27 10:03:21;;;;;;;11.57;6.10;;;18.20;99.90;;;;;;4107768;28;20102;-64
2021/08/27 10:05:38;;;;;;;8.95;5.47;;;18.10;99.90;;;;;;4108568;28;20039;-64
2021/08/27 10:07:41;;;;;;;8.20;5.10;;;18.00;99.90;;;;;;4107438;28;20027;-64
2021/08/27 10:09:46;;;;;;;12.30;5.68;;;18.00;99.90;;;;;;4108448;28;20132;-65
2021/08/27 10:11:49;;;;;;;13.10;6.18;;;18.00;99.90;;;;;;4107189;28;20561;-64
2021/08/27 10:13:52;;;;;;;9.88;4.70;;;18.10;99.90;;;;;;4107841;28;20077;-64
2021/08/27 10:15:53;;;;;;;8.40;4.72;;;18.10;99.90;;;;;;4106268;28;20427;-66
2021/08/27 10:17:54;;;;;;;13.20;5.68;;;18.20;99.90;;;;;;4109082;28;20513;-63
2021/08/27 10:19:56;;;;;;;17.20;5.72;;;18.30;99.90;;;;;;4123953;28;20034;-64
2021/08/27 10:21:58;;;;;;;10.95;6.03;;;18.30;99.90;;;;;;4123675;28;20046;-65
2021/08/27 10:23:59;;;;;;;10.15;6.25;;;18.40;99.90;;;;;;4122778;28;20085;-64
2021/08/27 10:26:18;;;;;;;11.18;6.50;;;18.40;99.90;;;;;;4123423;28;20525;-65
2021/08/27 10:28:27;;;;;;;10.40;5.75;;;18.30;99.90;;;;;;4107397;28;20069;-65
2021/08/27 10:30:58;;;;;;;15.45;5.90;;;18.30;99.90;;;;;;4107393;28;20027;-65
2021/08/27 10:32:59;;;;;;;11.63;6.13;;;18.20;99.90;;;;;;4119632;28;20042;-64
2021/08/27 10:35:00;;;;;;;10.55;6.60;;;18.20;99.90;;;;;;4107339;28;20824;-65
2021/08/27 10:37:02;;;;;;;15.90;7.43;;;18.20;99.90;;;;;;4107228;28;20097;-65
2021/08/27 10:39:03;;;;;;;10.23;5.95;;;18.20;99.90;;;;;;4107548;28;20031;-65
2021/08/27 10:41:15;;;;;;;15.50;7.53;;;18.20;99.90;;;;;;4107328;28;20463;-65
2021/08/27 10:43:17;;;;;;;11.80;7.00;;;18.20;99.90;;;;;;4107371;28;20023;-66